SBGL/GIG METAR and TAF weather

Enter ICAO airport designator
Station Type Date Time Source
SBGL METAR 2021/04/14 19:00 UTC NOAA

SBGL 141900Z 18007KT 9999 FEW020 SCT050 26/16 Q1017


Station Type Date Time Source
SBGL Decoded METAR 2021/04/14 19:00 UTC NOAA

Galeao, Brazil (SBGL) 22-49S 043-15W 42M
Apr 14, 2021 - 03:00 PM EDT / 2021.04.14 1900 UTC
Wind: from the S (180 degrees) at 8 MPH (7 KT):0
Visibility: greater than 7 mile(s):0
Sky conditions: partly cloudy
Temperature: 78 F (26 C)
Dew Point: 60 F (16 C)
Relative Humidity: 54%
Pressure (altimeter): 30.03 in. Hg (1017 hPa)
ob: SBGL 141900Z 18007KT 9999 FEW020 SCT050 26/16 Q1017
cycle: 19

Station Type Date Time Source
SBGL TAF 2021/04/14 18:24 UTC NOAA

TAF SBGL 141515Z 1418/1524 17015KT 9999 SCT020 TN20/1509Z TX27/1517Z
BECMG 1422/1424 10010KT FEW020
BECMG 1501/1503 32007KT 8000 FEW016
BECMG 1510/1512 02010KT 9999 FEW020
BECMG 1513/1515 12010KT
BECMG 1516/1518 15015KT FEW025
RMK PGS

Example: see airport list